KSPW

Spencer Municipal Airport

Spencer, Iowa, USA
METAR KSPW 200053Z AUTO 29006KT 10SM CLR 02/M01 A2965 RMK AO2 SLP054 T00171011
Observed Flight Rules
Jan-20 @ 00:53 UTC (21 minutes ago) Visual Flight Rules
Wind Visibility Clouds
290° at 6 knots 10 miles
  • Clear skies
Temperatures Readings
Current 2°C / 36°F
Dewpoint -1°C / 30°F
Humidity 81%
Altimeter 29.65" Hg
Pressure 1005.4 hPa
Elevation 403
METAR KSPW 200053Z AUTO 29006KT 10SM CLR 02/M01 A2965 RMK AO2 SLP054 T00171011
Observed Flight Rules
Jan-20 @ 00:53 UTC
(21 minutes ago)
VFR
Wind Visibility
290° at 6 knots 10 miles
Clouds
  • Clear skies
Temperature Dewpoint
2°C / 36°F -1°C / 30°F
Humidity Altimeter Pressure
81% 29.65" Hg 1005.4 hPa